Time;durP1;ratioP1;P1;durP2;ratioP2;P2;SDS_P1;SDS_P2;PMS_P1;PMS_P2;Temp;Humidity;BMP_temperature;BMP_pressure;BME280_temperature;BME280_humidity;BME280_pressure;Samples;Min_cycle;Max_cycle;Signal;HPM_P1;HPM_P2
2020/01/07 00:00:51;;;;;;;4.61;4.17;;;;;;;18.65;37.92;101391.16;;;;-49
2020/01/07 00:03:51;;;;;;;4.70;4.21;;;;;;;18.63;37.96;101401.34;;;;-49
2020/01/07 00:06:51;;;;;;;4.89;4.39;;;;;;;18.61;37.98;101409.33;;;;-49
2020/01/07 00:09:51;;;;;;;4.81;4.27;;;;;;;18.60;37.98;101407.25;;;;-49
2020/01/07 00:12:51;;;;;;;4.89;4.44;;;;;;;18.59;37.99;101408.84;;;;-49
2020/01/07 00:15:51;;;;;;;4.82;4.32;;;;;;;18.57;37.99;101432.25;;;;-50
2020/01/07 00:19:02;;;;;;;4.78;4.38;;;;;;;18.56;37.93;101431.97;;;;-49
2020/01/07 00:21:51;;;;;;;4.79;4.32;;;;;;;18.55;38.02;101432.74;;;;-49
2020/01/07 00:24:51;;;;;;;4.87;4.39;;;;;;;18.54;38.04;101438.08;;;;-50
2020/01/07 00:27:51;;;;;;;4.88;4.38;;;;;;;18.53;38.05;101433.73;;;;-49
2020/01/07 00:30:51;;;;;;;4.90;4.40;;;;;;;18.51;38.06;101432.42;;;;-49
2020/01/07 00:33:51;;;;;;;4.85;4.37;;;;;;;18.50;38.03;101436.71;;;;-50
2020/01/07 00:36:51;;;;;;;4.69;4.20;;;;;;;18.48;38.03;101433.34;;;;-49
2020/01/07 00:39:51;;;;;;;4.70;4.25;;;;;;;18.45;38.10;101430.64;;;;-50
2020/01/07 00:42:51;;;;;;;4.62;4.13;;;;;;;18.45;38.09;101439.50;;;;-50
2020/01/07 00:45:51;;;;;;;4.67;4.22;;;;;;;18.43;38.08;101442.12;;;;-49
2020/01/07 00:48:51;;;;;;;4.81;4.39;;;;;;;18.42;38.21;101437.03;;;;-49
2020/01/07 00:51:51;;;;;;;4.91;4.41;;;;;;;18.41;38.10;101442.83;;;;-49
2020/01/07 00:54:51;;;;;;;4.59;4.19;;;;;;;18.40;38.13;101438.01;;;;-49
2020/01/07 00:57:51;;;;;;;4.67;4.27;;;;;;;18.39;38.16;101443.81;;;;-49
2020/01/07 01:00:51;;;;;;;5.13;4.59;;;;;;;18.38;38.14;101449.75;;;;-50
2020/01/07 01:04:01;;;;;;;4.82;4.27;;;;;;;18.37;38.20;101452.92;;;;-48
2020/01/07 01:06:51;;;;;;;5.07;4.57;;;;;;;18.36;38.17;101469.08;;;;-49
2020/01/07 01:09:51;;;;;;;5.13;4.63;;;;;;;18.34;38.19;101468.00;;;;-50
2020/01/07 01:12:51;;;;;;;4.83;4.33;;;;;;;18.33;38.26;101478.04;;;;-50
2020/01/07 01:15:51;;;;;;;4.43;4.03;;;;;;;18.32;38.19;101477.13;;;;-49
2020/01/07 01:18:51;;;;;;;4.59;4.17;;;;;;;18.31;38.15;101471.64;;;;-49
2020/01/07 01:21:51;;;;;;;4.50;4.10;;;;;;;18.30;38.25;101475.55;;;;-50
2020/01/07 01:24:51;;;;;;;4.61;4.21;;;;;;;18.28;38.19;101482.59;;;;-49
2020/01/07 01:27:51;;;;;;;4.65;4.25;;;;;;;18.28;38.23;101475.36;;;;-49
2020/01/07 01:30:51;;;;;;;5.07;4.57;;;;;;;18.27;38.24;101474.34;;;;-49
2020/01/07 01:33:51;;;;;;;4.61;4.20;;;;;;;18.25;38.24;101468.36;;;;-49
2020/01/07 01:36:51;;;;;;;4.59;4.19;;;;;;;18.24;38.21;101486.02;;;;-50
2020/01/07 01:39:51;;;;;;;4.62;4.22;;;;;;;18.23;38.19;101490.21;;;;-49
2020/01/07 01:42:51;;;;;;;4.68;4.25;;;;;;;18.22;38.24;101496.55;;;;-49
2020/01/07 01:45:51;;;;;;;4.41;3.97;;;;;;;18.21;38.20;101497.48;;;;-49
2020/01/07 01:48:51;;;;;;;4.30;3.90;;;;;;;18.20;38.29;101493.86;;;;-49
2020/01/07 01:51:51;;;;;;;4.83;4.37;;;;;;;18.20;38.32;101489.44;;;;-50
2020/01/07 01:54:51;;;;;;;4.70;4.25;;;;;;;18.18;38.29;101490.30;;;;-49
2020/01/07 01:57:51;;;;;;;4.75;4.23;;;;;;;18.17;38.25;101488.98;;;;-50
2020/01/07 02:00:51;;;;;;;4.55;4.08;;;;;;;18.17;38.29;101493.49;;;;-49
2020/01/07 02:03:51;;;;;;;4.71;4.23;;;;;;;18.15;38.31;101495.29;;;;-49
2020/01/07 02:06:51;;;;;;;4.58;4.18;;;;;;;18.13;38.35;101486.59;;;;-50
2020/01/07 02:09:51;;;;;;;5.03;4.21;;;;;;;18.12;38.30;101490.08;;;;-50
2020/01/07 02:12:51;;;;;;;4.57;4.17;;;;;;;18.11;38.33;101493.64;;;;-49
2020/01/07 02:15:51;;;;;;;4.65;4.24;;;;;;;18.11;38.40;101491.29;;;;-50
2020/01/07 02:18:51;;;;;;;4.39;3.99;;;;;;;18.09;38.31;101485.97;;;;-49
2020/01/07 02:21:51;;;;;;;4.51;4.11;;;;;;;18.08;38.41;101482.08;;;;-49
2020/01/07 02:24:51;;;;;;;4.55;4.13;;;;;;;18.07;38.40;101491.58;;;;-49
2020/01/07 02:27:51;;;;;;;4.45;4.04;;;;;;;18.06;38.40;101502.34;;;;-49
2020/01/07 02:30:51;;;;;;;5.63;4.36;;;;;;;18.05;38.42;101510.12;;;;-49
2020/01/07 02:33:51;;;;;;;4.61;4.21;;;;;;;18.05;38.51;101514.29;;;;-49
2020/01/07 02:36:51;;;;;;;4.74;4.24;;;;;;;18.03;38.42;101519.86;;;;-49
2020/01/07 02:39:51;;;;;;;4.79;4.33;;;;;;;18.04;38.43;101513.89;;;;-49
2020/01/07 02:42:51;;;;;;;4.44;4.04;;;;;;;18.03;38.43;101505.02;;;;-49
2020/01/07 02:45:51;;;;;;;4.50;4.10;;;;;;;18.01;38.43;101498.59;;;;-50
2020/01/07 02:48:51;;;;;;;4.62;4.09;;;;;;;18.01;38.42;101506.06;;;;-49
2020/01/07 02:51:51;;;;;;;4.57;4.17;;;;;;;18.00;38.49;101509.67;;;;-49
2020/01/07 02:54:51;;;;;;;4.53;4.13;;;;;;;18.00;38.44;101510.77;;;;-49
2020/01/07 02:57:51;;;;;;;4.45;4.05;;;;;;;17.99;38.44;101505.52;;;;-49
2020/01/07 03:00:51;;;;;;;4.41;4.01;;;;;;;17.98;38.49;101506.95;;;;-49
2020/01/07 03:03:51;;;;;;;4.27;3.87;;;;;;;17.97;38.43;101502.95;;;;-49
2020/01/07 03:06:55;;;;;;;4.58;4.12;;;;;;;17.96;38.48;101503.88;;;;-49
2020/01/07 03:09:51;;;;;;;4.50;4.10;;;;;;;17.95;38.54;101510.50;;;;-49
2020/01/07 03:12:51;;;;;;;4.69;4.19;;;;;;;17.95;38.45;101513.10;;;;-49
2020/01/07 03:15:51;;;;;;;4.20;3.80;;;;;;;17.94;38.58;101514.39;;;;-49
2020/01/07 03:18:51;;;;;;;4.23;3.84;;;;;;;17.93;38.45;101519.61;;;;-49
2020/01/07 03:21:51;;;;;;;4.13;3.76;;;;;;;17.93;38.48;101521.11;;;;-49
2020/01/07 03:24:51;;;;;;;4.40;4.00;;;;;;;17.92;38.50;101516.59;;;;-50
2020/01/07 03:27:51;;;;;;;4.18;3.78;;;;;;;17.90;38.51;101511.89;;;;-50
2020/01/07 03:30:51;;;;;;;4.27;3.87;;;;;;;17.90;38.55;101517.72;;;;-50
2020/01/07 03:33:51;;;;;;;4.43;3.92;;;;;;;17.89;38.50;101526.41;;;;-50
2020/01/07 03:36:51;;;;;;;4.27;3.87;;;;;;;17.88;38.59;101532.18;;;;-49
2020/01/07 03:39:51;;;;;;;3.95;3.59;;;;;;;17.87;38.56;101532.91;;;;-49
2020/01/07 03:42:51;;;;;;;4.71;3.60;;;;;;;17.87;38.62;101521.77;;;;-50
2020/01/07 03:45:51;;;;;;;4.19;3.79;;;;;;;17.86;38.65;101520.45;;;;-49
2020/01/07 03:48:51;;;;;;;3.81;3.51;;;;;;;17.86;38.57;101525.13;;;;-49
2020/01/07 03:51:51;;;;;;;4.07;3.70;;;;;;;17.85;38.65;101526.59;;;;-50
2020/01/07 03:54:51;;;;;;;3.89;3.55;;;;;;;17.83;38.66;101519.27;;;;-49
2020/01/07 03:57:51;;;;;;;4.10;3.70;;;;;;;17.84;38.64;101522.16;;;;-49
2020/01/07 04:00:51;;;;;;;4.03;3.63;;;;;;;17.84;38.65;101525.27;;;;-49
2020/01/07 04:03:51;;;;;;;3.65;3.35;;;;;;;17.83;38.74;101526.55;;;;-49
2020/01/07 04:06:51;;;;;;;4.04;3.71;;;;;;;17.84;38.78;101532.03;;;;-49
2020/01/07 04:09:51;;;;;;;3.99;3.51;;;;;;;17.87;38.74;101530.38;;;;-49
2020/01/07 04:12:51;;;;;;;3.87;3.47;;;;;;;17.88;38.71;101535.54;;;;-50
2020/01/07 04:15:51;;;;;;;3.87;3.47;;;;;;;17.89;38.73;101536.87;;;;-49
2020/01/07 04:18:51;;;;;;;3.75;3.36;;;;;;;17.91;38.75;101534.41;;;;-50
2020/01/07 04:21:51;;;;;;;3.66;3.36;;;;;;;17.94;38.86;101535.67;;;;-50
2020/01/07 04:24:51;;;;;;;3.83;3.43;;;;;;;17.96;38.89;101534.73;;;;-49
2020/01/07 04:27:51;;;;;;;3.66;3.36;;;;;;;17.99;38.82;101533.33;;;;-50
2020/01/07 04:30:51;;;;;;;3.67;3.37;;;;;;;18.03;38.51;101520.02;;;;-50
2020/01/07 04:33:51;;;;;;;4.09;3.60;;;;;;;18.06;38.48;101524.95;;;;-50
2020/01/07 04:36:51;;;;;;;3.95;3.42;;;;;;;18.09;38.63;101524.27;;;;-50
2020/01/07 04:39:51;;;;;;;3.67;3.29;;;;;;;18.12;38.68;101515.84;;;;-50
2020/01/07 04:42:51;;;;;;;3.61;3.31;;;;;;;18.15;38.77;101522.65;;;;-50
2020/01/07 04:45:51;;;;;;;3.64;3.33;;;;;;;18.17;38.79;101519.02;;;;-50
2020/01/07 04:48:51;;;;;;;5.51;3.33;;;;;;;18.21;39.13;101522.45;;;;-53
2020/01/07 04:51:51;;;;;;;3.36;3.05;;;;;;;18.25;39.35;101518.63;;;;-52
2020/01/07 04:54:51;;;;;;;4.25;3.03;;;;;;;18.28;39.42;101523.19;;;;-52
2020/01/07 04:57:51;;;;;;;3.62;3.13;;;;;;;18.31;39.56;101524.66;;;;-50
2020/01/07 05:00:51;;;;;;;3.63;3.07;;;;;;;18.33;39.33;101521.11;;;;-52
2020/01/07 05:03:51;;;;;;;3.33;2.95;;;;;;;18.33;39.24;101521.02;;;;-52
2020/01/07 05:06:51;;;;;;;3.37;3.05;;;;;;;18.35;39.21;101528.72;;;;-52
2020/01/07 05:09:51;;;;;;;3.42;3.10;;;;;;;18.34;39.14;101528.09;;;;-52
2020/01/07 05:12:51;;;;;;;3.35;3.05;;;;;;;18.35;39.13;101537.86;;;;-52
2020/01/07 05:15:51;;;;;;;4.04;3.05;;;;;;;18.34;39.12;101542.16;;;;-53
2020/01/07 05:18:51;;;;;;;6.32;2.99;;;;;;;18.35;39.16;101548.84;;;;-52
2020/01/07 05:21:51;;;;;;;3.65;2.99;;;;;;;18.35;39.03;101547.45;;;;-52
2020/01/07 05:24:51;;;;;;;3.31;3.01;;;;;;;18.35;39.11;101553.47;;;;-52
2020/01/07 05:27:53;;;;;;;3.26;2.96;;;;;;;18.35;39.09;101555.92;;;;-51
2020/01/07 05:30:59;;;;;;;2.96;2.70;;;;;;;18.34;39.10;101563.33;;;;-51
2020/01/07 05:34:09;;;;;;;3.32;3.02;;;;;;;18.35;39.14;101569.53;;;;-51
2020/01/07 05:36:51;;;;;;;3.07;2.80;;;;;;;18.34;39.07;101576.78;;;;-57
2020/01/07 05:39:51;;;;;;;3.09;2.81;;;;;;;18.35;39.08;101584.08;;;;-57
2020/01/07 05:42:51;;;;;;;4.21;2.83;;;;;;;18.33;39.10;101580.05;;;;-57
2020/01/07 05:45:51;;;;;;;3.15;2.85;;;;;;;18.33;39.12;101589.57;;;;-57
2020/01/07 05:48:51;;;;;;;3.05;2.80;;;;;;;18.33;39.07;101592.69;;;;-57
2020/01/07 05:51:50;;;;;;;3.23;2.73;;;;;;;18.33;38.93;101592.19;;;;-57
2020/01/07 05:54:51;;;;;;;3.09;2.79;;;;;;;18.33;38.98;101602.78;;;;-57
2020/01/07 05:57:51;;;;;;;2.95;2.70;;;;;;;18.33;38.92;101607.13;;;;-57
2020/01/07 06:00:51;;;;;;;3.37;2.75;;;;;;;18.32;38.91;101608.42;;;;-57
2020/01/07 06:03:51;;;;;;;3.13;2.67;;;;;;;18.32;38.91;101616.87;;;;-57
2020/01/07 06:06:51;;;;;;;3.10;2.80;;;;;;;18.32;38.93;101618.33;;;;-57
2020/01/07 06:09:51;;;;;;;3.03;2.53;;;;;;;18.31;38.91;101619.87;;;;-58
2020/01/07 06:12:51;;;;;;;2.79;2.58;;;;;;;18.31;38.89;101626.63;;;;-57
2020/01/07 06:15:51;;;;;;;3.37;2.75;;;;;;;18.30;38.90;101628.11;;;;-57
2020/01/07 06:18:51;;;;;;;2.73;2.53;;;;;;;18.29;38.91;101632.83;;;;-57
2020/01/07 06:21:51;;;;;;;2.91;2.64;;;;;;;18.28;38.93;101639.12;;;;-57
2020/01/07 06:24:51;;;;;;;2.72;2.52;;;;;;;18.28;38.93;101639.63;;;;-57
2020/01/07 06:27:51;;;;;;;2.81;2.61;;;;;;;18.28;38.94;101645.53;;;;-57
2020/01/07 06:30:51;;;;;;;3.05;2.75;;;;;;;18.27;38.92;101650.59;;;;-57
2020/01/07 06:33:51;;;;;;;2.67;2.47;;;;;;;18.27;38.95;101655.45;;;;-57
2020/01/07 06:36:51;;;;;;;2.81;2.61;;;;;;;18.27;38.91;101662.30;;;;-57
2020/01/07 06:39:51;;;;;;;2.86;2.61;;;;;;;18.26;38.98;101668.81;;;;-57
2020/01/07 06:42:51;;;;;;;3.19;2.73;;;;;;;18.26;38.95;101669.48;;;;-57
2020/01/07 06:45:51;;;;;;;3.27;2.67;;;;;;;18.24;38.96;101677.64;;;;-56
2020/01/07 06:48:51;;;;;;;2.89;2.54;;;;;;;18.24;38.92;101680.16;;;;-57
2020/01/07 06:51:51;;;;;;;2.96;2.66;;;;;;;18.23;38.96;101683.62;;;;-56
2020/01/07 06:54:51;;;;;;;3.24;2.61;;;;;;;18.22;38.96;101688.23;;;;-55
2020/01/07 06:57:51;;;;;;;2.80;2.56;;;;;;;18.22;38.91;101692.58;;;;-57
2020/01/07 07:00:51;;;;;;;2.87;2.63;;;;;;;18.21;38.95;101698.59;;;;-57
2020/01/07 07:03:51;;;;;;;2.71;2.51;;;;;;;18.21;39.00;101706.70;;;;-55
2020/01/07 07:06:51;;;;;;;2.61;2.41;;;;;;;18.19;38.98;101715.94;;;;-57
2020/01/07 07:09:51;;;;;;;2.82;2.58;;;;;;;18.19;39.00;101723.86;;;;-56
2020/01/07 07:12:51;;;;;;;2.77;2.49;;;;;;;18.19;39.01;101726.37;;;;-56
2020/01/07 07:15:51;;;;;;;2.69;2.49;;;;;;;18.17;39.05;101727.95;;;;-55
2020/01/07 07:18:51;;;;;;;2.81;2.61;;;;;;;18.18;39.04;101731.23;;;;-57
2020/01/07 07:21:51;;;;;;;2.91;2.48;;;;;;;18.17;38.99;101744.63;;;;-57
2020/01/07 07:24:51;;;;;;;2.74;2.53;;;;;;;18.17;39.00;101750.92;;;;-57
2020/01/07 07:27:51;;;;;;;2.59;2.39;;;;;;;18.17;38.98;101751.91;;;;-55
2020/01/07 07:30:51;;;;;;;2.95;2.50;;;;;;;18.16;38.96;101760.48;;;;-57
2020/01/07 07:33:51;;;;;;;2.86;2.56;;;;;;;18.17;39.03;101764.91;;;;-57
2020/01/07 07:36:51;;;;;;;3.12;2.64;;;;;;;18.17;39.22;101773.30;;;;-55
2020/01/07 07:39:51;;;;;;;2.87;2.61;;;;;;;18.16;39.18;101779.20;;;;-55
2020/01/07 07:42:51;;;;;;;2.95;2.45;;;;;;;18.18;39.11;101777.39;;;;-56
2020/01/07 07:45:51;;;;;;;2.81;2.50;;;;;;;18.19;39.15;101786.12;;;;-56
2020/01/07 07:48:51;;;;;;;2.70;2.40;;;;;;;18.20;39.11;101794.11;;;;-56
2020/01/07 07:51:51;;;;;;;2.61;2.38;;;;;;;18.21;39.14;101800.08;;;;-54
2020/01/07 07:54:51;;;;;;;3.85;2.60;;;;;;;18.22;39.15;101804.77;;;;-55
2020/01/07 07:57:51;;;;;;;3.06;2.33;;;;;;;18.22;39.17;101804.39;;;;-55
2020/01/07 08:00:51;;;;;;;2.80;2.60;;;;;;;18.22;39.24;101806.39;;;;-54
2020/01/07 08:03:59;;;;;;;2.36;2.13;;;;;;;18.23;39.20;101814.55;;;;-56
2020/01/07 08:06:54;;;;;;;2.63;2.37;;;;;;;18.25;39.19;101814.84;;;;-54
2020/01/07 08:10:04;;;;;;;2.77;2.47;;;;;;;18.25;39.24;101818.12;;;;-56
2020/01/07 08:12:53;;;;;;;2.71;2.49;;;;;;;18.26;39.22;101827.67;;;;-56
2020/01/07 08:15:51;;;;;;;2.50;2.30;;;;;;;18.26;39.22;101825.61;;;;-56
2020/01/07 08:18:51;;;;;;;2.56;2.33;;;;;;;18.26;39.22;101829.29;;;;-55
2020/01/07 08:21:51;;;;;;;2.51;2.31;;;;;;;18.27;39.23;101828.91;;;;-56
2020/01/07 08:24:51;;;;;;;3.01;2.25;;;;;;;18.27;39.27;101831.31;;;;-56
2020/01/07 08:27:51;;;;;;;2.57;2.32;;;;;;;18.27;39.23;101830.31;;;;-55
2020/01/07 08:30:51;;;;;;;2.59;2.39;;;;;;;18.27;39.26;101830.87;;;;-55
2020/01/07 08:33:51;;;;;;;2.62;2.41;;;;;;;18.27;39.24;101831.37;;;;-55
2020/01/07 08:36:51;;;;;;;2.74;2.49;;;;;;;18.27;39.20;101834.71;;;;-57
2020/01/07 08:39:51;;;;;;;2.30;2.10;;;;;;;18.28;39.19;101843.37;;;;-55
2020/01/07 08:42:51;;;;;;;2.40;2.20;;;;;;;18.27;39.17;101839.95;;;;-55
2020/01/07 08:45:51;;;;;;;2.51;2.31;;;;;;;18.27;39.19;101850.27;;;;-55
2020/01/07 08:48:51;;;;;;;2.66;2.43;;;;;;;18.28;39.17;101854.97;;;;-55
2020/01/07 08:51:51;;;;;;;2.77;2.25;;;;;;;18.26;39.14;101850.86;;;;-55
2020/01/07 08:54:51;;;;;;;2.55;2.35;;;;;;;18.27;39.15;101857.02;;;;-56
2020/01/07 08:57:51;;;;;;;3.18;2.25;;;;;;;18.27;39.18;101865.48;;;;-55
2020/01/07 09:00:51;;;;;;;3.41;2.31;;;;;;;18.26;39.16;101870.31;;;;-55
2020/01/07 09:03:51;;;;;;;2.77;2.38;;;;;;;18.26;39.15;101867.14;;;;-55
2020/01/07 09:06:51;;;;;;;2.64;2.20;;;;;;;18.26;39.16;101870.09;;;;-56
2020/01/07 09:09:51;;;;;;;2.49;2.29;;;;;;;18.25;39.19;101866.02;;;;-55
2020/01/07 09:12:51;;;;;;;2.44;2.24;;;;;;;18.25;39.20;101876.88;;;;-56
2020/01/07 09:15:51;;;;;;;2.41;2.20;;;;;;;18.24;39.19;101881.33;;;;-55
2020/01/07 09:18:51;;;;;;;2.55;2.35;;;;;;;18.23;39.20;101881.05;;;;-56
2020/01/07 09:21:51;;;;;;;2.40;2.20;;;;;;;18.23;39.21;101889.86;;;;-55
2020/01/07 09:24:51;;;;;;;2.39;2.19;;;;;;;18.22;39.21;101889.67;;;;-56
2020/01/07 09:27:51;;;;;;;2.41;2.21;;;;;;;18.23;39.21;101895.21;;;;-55
2020/01/07 09:30:51;;;;;;;2.53;2.33;;;;;;;18.21;39.17;101897.63;;;;-54
2020/01/07 09:33:51;;;;;;;2.94;2.24;;;;;;;18.22;39.63;101894.39;;;;-54
2020/01/07 09:36:51;;;;;;;3.61;2.45;;;;;;;18.22;39.76;101906.95;;;;-55
2020/01/07 09:39:51;;;;;;;2.83;2.51;;;;;;;18.25;39.78;101912.28;;;;-56
2020/01/07 09:42:51;;;;;;;3.35;2.64;;;;;;;18.28;40.07;101912.88;;;;-58
2020/01/07 09:45:51;;;;;;;3.65;2.63;;;;;;;18.31;39.72;101908.64;;;;-58
2020/01/07 09:48:51;;;;;;;4.09;2.72;;;;;;;18.35;39.84;101907.70;;;;-55
2020/01/07 09:51:51;;;;;;;5.15;2.67;;;;;;;18.38;39.76;101902.29;;;;-54
2020/01/07 09:55:01;;;;;;;2.91;2.54;;;;;;;18.42;39.81;101903.38;;;;-58
2020/01/07 09:58:13;;;;;;;3.15;2.65;;;;;;;18.46;39.87;101902.50;;;;-60
2020/01/07 10:01:10;;;;;;;3.92;2.74;;;;;;;18.51;39.70;101913.88;;;;-54
2020/01/07 10:03:51;;;;;;;3.91;2.73;;;;;;;18.54;39.42;101918.27;;;;-54
2020/01/07 10:06:51;;;;;;;4.11;2.71;;;;;;;18.58;39.67;101916.84;;;;-55
2020/01/07 10:09:51;;;;;;;6.17;2.83;;;;;;;18.66;39.99;101925.01;;;;-57
2020/01/07 10:12:51;;;;;;;6.57;2.72;;;;;;;18.70;40.04;101930.87;;;;-57
2020/01/07 10:15:51;;;;;;;3.18;2.48;;;;;;;18.77;40.20;101926.34;;;;-55
2020/01/07 10:18:51;;;;;;;6.86;2.87;;;;;;;18.82;40.79;101933.02;;;;-57
2020/01/07 10:21:51;;;;;;;4.23;2.55;;;;;;;18.83;39.73;101935.27;;;;-57
2020/01/07 10:24:51;;;;;;;5.37;2.56;;;;;;;18.84;39.52;101932.94;;;;-56
2020/01/07 10:27:51;;;;;;;6.90;2.62;;;;;;;18.91;40.52;101928.80;;;;-48
2020/01/07 10:30:51;;;;;;;12.17;3.05;;;;;;;18.89;40.02;101930.05;;;;-49
2020/01/07 10:33:51;;;;;;;12.01;3.13;;;;;;;18.89;39.84;101926.59;;;;-47
2020/01/07 10:36:51;;;;;;;10.37;3.04;;;;;;;18.90;39.72;101922.81;;;;-47
2020/01/07 10:39:51;;;;;;;9.53;2.75;;;;;;;18.96;39.82;101918.61;;;;-48
2020/01/07 10:42:51;;;;;;;6.74;2.85;;;;;;;18.98;39.59;101918.77;;;;-49
2020/01/07 10:45:51;;;;;;;7.61;2.75;;;;;;;19.01;39.57;101917.74;;;;-48
2020/01/07 10:48:51;;;;;;;7.13;2.75;;;;;;;19.04;39.57;101918.34;;;;-48
2020/01/07 10:51:51;;;;;;;4.84;2.45;;;;;;;19.07;39.65;101913.09;;;;-48
2020/01/07 10:54:51;;;;;;;4.39;2.49;;;;;;;19.09;39.44;101907.64;;;;-48
2020/01/07 10:57:51;;;;;;;6.14;2.49;;;;;;;19.13;39.43;101915.34;;;;-48
2020/01/07 11:00:51;;;;;;;4.83;2.57;;;;;;;19.14;39.38;101922.70;;;;-49
2020/01/07 11:04:51;;;;;;;4.83;2.37;;;;;;;19.21;39.80;101917.28;;;;-49
2020/01/07 11:07:51;;;;;;;10.54;2.59;;;;;;;19.23;39.97;101919.27;;;;-46
2020/01/07 11:10:51;;;;;;;4.03;2.57;;;;;;;19.24;39.54;101915.92;;;;-49
2020/01/07 11:13:51;;;;;;;3.73;2.53;;;;;;;19.27;39.75;101920.98;;;;-49
2020/01/07 11:16:51;;;;;;;5.70;2.73;;;;;;;19.29;39.44;101918.23;;;;-48
2020/01/07 11:19:51;;;;;;;4.13;2.60;;;;;;;19.30;39.39;101911.03;;;;-49
2020/01/07 11:22:51;;;;;;;4.45;2.63;;;;;;;19.33;39.44;101907.54;;;;-47
2020/01/07 11:25:51;;;;;;;4.89;2.53;;;;;;;19.35;39.19;101909.81;;;;-50
2020/01/07 11:28:51;;;;;;;3.71;2.38;;;;;;;19.38;39.77;101898.80;;;;-48
2020/01/07 11:31:51;;;;;;;5.83;2.48;;;;;;;19.40;39.54;101895.07;;;;-47
2020/01/07 11:34:51;;;;;;;3.87;2.30;;;;;;;19.40;39.27;101890.38;;;;-47
2020/01/07 11:37:51;;;;;;;2.79;2.10;;;;;;;19.40;39.26;101894.23;;;;-47
2020/01/07 11:40:51;;;;;;;3.08;2.32;;;;;;;19.42;39.22;101890.97;;;;-47
2020/01/07 11:43:51;;;;;;;2.98;2.32;;;;;;;19.42;39.17;101880.80;;;;-47
2020/01/07 11:46:51;;;;;;;2.96;2.41;;;;;;;19.44;39.24;101886.35;;;;-47
2020/01/07 11:49:51;;;;;;;3.09;2.31;;;;;;;19.46;39.21;101888.78;;;;-47
2020/01/07 11:53:12;;;;;;;3.08;2.20;;;;;;;19.47;39.18;101882.09;;;;-47
2020/01/07 11:55:55;;;;;;;3.01;2.11;;;;;;;19.48;39.19;101878.80;;;;-48
2020/01/07 11:58:58;;;;;;;4.10;2.20;;;;;;;19.48;39.12;101879.33;;;;-47
2020/01/07 12:05:51;;;;;;;3.07;2.23;;;;;;;19.51;39.16;101876.60;;;;-47
2020/01/07 12:08:51;;;;;;;3.53;2.02;;;;;;;19.52;39.11;101876.91;;;;-47
2020/01/07 12:11:51;;;;;;;2.67;1.97;;;;;;;19.52;39.08;101868.87;;;;-47
2020/01/07 12:14:51;;;;;;;3.43;2.15;;;;;;;19.54;39.12;101868.89;;;;-47
2020/01/07 12:17:51;;;;;;;2.60;2.06;;;;;;;19.55;39.09;101872.06;;;;-46
2020/01/07 12:20:51;;;;;;;2.46;2.11;;;;;;;19.57;39.13;101871.09;;;;-47
2020/01/07 12:23:51;;;;;;;2.61;2.20;;;;;;;19.58;39.12;101870.59;;;;-47
2020/01/07 12:26:51;;;;;;;2.96;2.29;;;;;;;19.60;39.01;101874.48;;;;-47
2020/01/07 12:29:51;;;;;;;2.21;2.00;;;;;;;19.61;39.13;101876.05;;;;-47
2020/01/07 12:32:51;;;;;;;2.55;2.07;;;;;;;19.62;39.14;101871.83;;;;-47
2020/01/07 12:35:51;;;;;;;2.21;2.00;;;;;;;19.64;39.14;101886.30;;;;-47
2020/01/07 12:38:51;;;;;;;5.75;2.03;;;;;;;19.67;39.44;101889.59;;;;-48
2020/01/07 12:41:51;;;;;;;3.23;2.54;;;;;;;19.67;38.88;101888.59;;;;-47
2020/01/07 12:44:51;;;;;;;3.86;2.76;;;;;;;19.68;38.81;101890.27;;;;-47
2020/01/07 12:47:51;;;;;;;3.01;2.68;;;;;;;19.69;38.79;101894.64;;;;-52
2020/01/07 12:50:51;;;;;;;5.25;2.73;;;;;;;19.70;38.71;101895.05;;;;-49
2020/01/07 12:53:51;;;;;;;5.57;3.04;;;;;;;19.71;39.22;101897.13;;;;-52
2020/01/07 12:56:51;;;;;;;5.46;2.90;;;;;;;19.71;39.16;101901.48;;;;-52
2020/01/07 12:59:51;;;;;;;4.25;2.85;;;;;;;19.71;39.08;101901.92;;;;-50
2020/01/07 13:02:51;;;;;;;3.63;2.87;;;;;;;19.72;39.46;101903.95;;;;-57
2020/01/07 13:05:51;;;;;;;4.07;2.99;;;;;;;19.73;39.07;101904.63;;;;-58
2020/01/07 13:08:51;;;;;;;3.63;2.87;;;;;;;19.72;39.15;101902.10;;;;-58
2020/01/07 13:11:51;;;;;;;4.47;2.96;;;;;;;19.73;38.97;101894.56;;;;-53
2020/01/07 13:14:51;;;;;;;5.15;2.67;;;;;;;19.74;38.94;101900.50;;;;-54
2020/01/07 13:17:51;;;;;;;6.26;2.80;;;;;;;19.78;39.08;101896.52;;;;-57
2020/01/07 13:20:51;;;;;;;3.70;2.59;;;;;;;19.78;38.97;101896.70;;;;-58
2020/01/07 13:23:51;;;;;;;3.75;2.39;;;;;;;19.78;38.97;101894.13;;;;-57
2020/01/07 13:26:51;;;;;;;4.61;2.63;;;;;;;19.79;38.91;101893.03;;;;-57
2020/01/07 13:29:51;;;;;;;6.61;2.79;;;;;;;19.80;39.22;101894.60;;;;-57
2020/01/07 13:32:51;;;;;;;4.90;2.83;;;;;;;19.83;38.72;101900.87;;;;-59
2020/01/07 13:35:51;;;;;;;4.35;2.49;;;;;;;19.83;38.89;101897.65;;;;-59
2020/01/07 13:38:51;;;;;;;3.59;2.47;;;;;;;19.84;38.83;101897.76;;;;-59
2020/01/07 13:41:51;;;;;;;4.13;2.31;;;;;;;19.85;38.84;101901.97;;;;-59
2020/01/07 13:44:51;;;;;;;4.39;2.35;;;;;;;19.86;38.87;101904.78;;;;-59
2020/01/07 13:47:51;;;;;;;3.82;2.38;;;;;;;19.87;38.88;101904.23;;;;-57
2020/01/07 13:50:51;;;;;;;2.99;2.21;;;;;;;19.86;38.85;101908.91;;;;-59
2020/01/07 13:53:51;;;;;;;3.03;2.41;;;;;;;19.87;38.89;101915.19;;;;-59
2020/01/07 13:56:51;;;;;;;3.08;2.13;;;;;;;19.88;38.94;101914.30;;;;-59
2020/01/07 13:59:51;;;;;;;2.97;2.19;;;;;;;19.88;38.77;101914.41;;;;-59
2020/01/07 14:02:51;;;;;;;2.35;2.10;;;;;;;19.89;38.84;101911.84;;;;-59
2020/01/07 14:05:51;;;;;;;3.96;2.25;;;;;;;19.88;38.93;101910.72;;;;-59
2020/01/07 14:08:51;;;;;;;2.65;2.03;;;;;;;19.89;38.87;101911.58;;;;-59
2020/01/07 14:11:51;;;;;;;2.67;2.20;;;;;;;19.88;38.86;101909.94;;;;-59
2020/01/07 14:14:51;;;;;;;2.75;2.35;;;;;;;19.88;38.92;101911.60;;;;-59
2020/01/07 14:17:52;;;;;;;2.61;2.20;;;;;;;19.88;38.95;101921.67;;;;-59
2020/01/07 14:21:07;;;;;;;2.40;2.07;;;;;;;19.88;38.85;101931.23;;;;-59
2020/01/07 14:23:51;;;;;;;3.46;2.11;;;;;;;19.88;38.92;101933.02;;;;-59
2020/01/07 14:26:51;;;;;;;2.56;2.13;;;;;;;19.89;38.89;101931.64;;;;-59
2020/01/07 14:29:51;;;;;;;2.59;2.14;;;;;;;19.89;38.94;101937.67;;;;-59
2020/01/07 14:32:51;;;;;;;3.57;2.39;;;;;;;19.90;38.87;101933.70;;;;-59
2020/01/07 14:35:51;;;;;;;2.27;2.07;;;;;;;19.91;38.87;101935.78;;;;-59
2020/01/07 14:38:51;;;;;;;2.96;2.00;;;;;;;19.92;38.88;101930.95;;;;-59
2020/01/07 14:41:51;;;;;;;2.31;2.09;;;;;;;19.92;38.87;101929.83;;;;-58
2020/01/07 14:45:51;;;;;;;2.11;1.93;;;;;;;19.93;38.85;101936.48;;;;-59
2020/01/07 14:48:51;;;;;;;2.16;1.97;;;;;;;19.93;38.88;101940.79;;;;-59
2020/01/07 14:51:51;;;;;;;2.25;2.00;;;;;;;19.93;38.88;101940.79;;;;-59
2020/01/07 14:54:51;;;;;;;2.41;2.04;;;;;;;19.95;38.88;101941.48;;;;-59
2020/01/07 14:57:51;;;;;;;2.81;2.07;;;;;;;19.95;38.91;101939.25;;;;-59
2020/01/07 15:00:51;;;;;;;2.48;1.97;;;;;;;19.98;39.01;101940.17;;;;-55
2020/01/07 15:03:51;;;;;;;3.93;2.14;;;;;;;20.00;38.90;101954.09;;;;-56
2020/01/07 15:06:51;;;;;;;2.58;2.11;;;;;;;19.98;38.40;101949.73;;;;-56
2020/01/07 15:11:51;;;;;;;2.31;2.09;;;;;;;19.98;38.72;101953.09;;;;-55
2020/01/07 15:14:51;;;;;;;2.09;1.93;;;;;;;19.98;38.79;101954.26;;;;-55
2020/01/07 15:17:51;;;;;;;3.14;2.01;;;;;;;19.99;38.85;101960.06;;;;-55
2020/01/07 15:20:51;;;;;;;2.30;2.01;;;;;;;19.98;38.81;101954.18;;;;-56
2020/01/07 15:23:51;;;;;;;2.11;1.87;;;;;;;20.00;38.79;101956.72;;;;-56
2020/01/07 15:26:51;;;;;;;2.11;1.88;;;;;;;20.00;38.83;101960.65;;;;-56
2020/01/07 15:29:51;;;;;;;2.10;1.90;;;;;;;20.01;38.83;101964.73;;;;-57
2020/01/07 15:32:51;;;;;;;2.93;2.07;;;;;;;20.02;38.82;101964.84;;;;-56
2020/01/07 15:35:51;;;;;;;2.83;1.94;;;;;;;20.02;38.89;101963.05;;;;-56
2020/01/07 15:38:51;;;;;;;2.04;1.79;;;;;;;20.03;38.84;101964.02;;;;-55
2020/01/07 15:41:51;;;;;;;2.10;1.90;;;;;;;20.03;38.81;101971.67;;;;-55
2020/01/07 15:44:51;;;;;;;3.68;1.90;;;;;;;20.10;38.96;101975.79;;;;-54
2020/01/07 15:47:51;;;;;;;5.23;2.01;;;;;;;20.10;39.31;101972.27;;;;-55
2020/01/07 15:50:51;;;;;;;2.55;1.97;;;;;;;20.12;39.35;101968.36;;;;-51
2020/01/07 15:53:51;;;;;;;4.74;2.03;;;;;;;20.16;39.36;101969.25;;;;-49
2020/01/07 15:56:51;;;;;;;3.83;2.05;;;;;;;20.18;39.47;101972.11;;;;-51
2020/01/07 15:59:51;;;;;;;4.63;1.91;;;;;;;20.20;39.50;101973.70;;;;-50
2020/01/07 16:02:51;;;;;;;3.43;1.97;;;;;;;20.22;39.49;101977.42;;;;-50
2020/01/07 16:05:51;;;;;;;2.40;1.83;;;;;;;20.23;39.38;101979.67;;;;-48
2020/01/07 16:08:51;;;;;;;3.31;2.04;;;;;;;20.26;39.65;101985.30;;;;-48
2020/01/07 16:11:51;;;;;;;2.60;1.93;;;;;;;20.29;39.89;101980.95;;;;-48
2020/01/07 16:14:59;;;;;;;2.59;2.00;;;;;;;20.30;39.53;101974.87;;;;-48
2020/01/07 16:17:55;;;;;;;4.47;1.87;;;;;;;20.33;39.78;101974.36;;;;-52
2020/01/07 16:24:04;;;;;;;3.13;1.96;;;;;;;20.36;39.83;101972.13;;;;-52
2020/01/07 16:26:51;;;;;;;3.13;1.85;;;;;;;20.38;40.04;101970.48;;;;-51
2020/01/07 16:29:51;;;;;;;3.61;1.89;;;;;;;20.39;39.95;101970.05;;;;-51
2020/01/07 16:32:51;;;;;;;2.79;1.83;;;;;;;20.42;40.22;101967.78;;;;-52
2020/01/07 16:35:51;;;;;;;3.61;1.86;;;;;;;20.43;40.09;101972.55;;;;-51
2020/01/07 16:38:51;;;;;;;1.99;1.75;;;;;;;20.45;39.98;101979.11;;;;-51
2020/01/07 16:41:51;;;;;;;4.99;1.93;;;;;;;20.46;39.87;101982.14;;;;-50
2020/01/07 16:44:51;;;;;;;2.17;1.82;;;;;;;20.47;39.81;101985.61;;;;-48
2020/01/07 16:47:51;;;;;;;2.93;1.80;;;;;;;20.48;39.70;101980.36;;;;-49
2020/01/07 16:50:51;;;;;;;2.17;1.89;;;;;;;20.50;40.03;101984.58;;;;-50
2020/01/07 16:53:51;;;;;;;2.03;1.83;;;;;;;20.51;40.03;101983.19;;;;-50